sensor_id;sensor_type;location;lat;lon;timestamp;pressure;altitude;pressure_sealevel;temperature
19568;BMP280;9930;49.240;8.548;2023-09-19T00:11:55;99988.06;;;21.65
19568;BMP280;9930;49.240;8.548;2023-09-19T00:22:12;100009.53;;;21.77
19568;BMP280;9930;49.240;8.548;2023-09-19T05:03:56;100254.25;;;20.97
19568;BMP280;9930;49.240;8.548;2023-09-19T05:16:31;100243.91;;;20.91
19568;BMP280;9930;49.240;8.548;2023-09-19T05:19:30;100253.41;;;20.92
19568;BMP280;9930;49.240;8.548;2023-09-19T05:22:30;100245.69;;;20.85
19568;BMP280;9930;49.240;8.548;2023-09-19T05:25:01;100265.50;;;20.95
19568;BMP280;9930;49.240;8.548;2023-09-19T05:27:30;100280.13;;;21.05
19568;BMP280;9930;49.240;8.548;2023-09-19T05:36:30;100259.41;;;21.00
19568;BMP280;9930;49.240;8.548;2023-09-19T05:38:59;100259.38;;;21.05
19568;BMP280;9930;49.240;8.548;2023-09-19T05:41:31;100252.47;;;21.02
19568;BMP280;9930;49.240;8.548;2023-09-19T05:44:00;100292.06;;;21.27
19568;BMP280;9930;49.240;8.548;2023-09-19T05:46:30;100277.41;;;21.22
19568;BMP280;9930;49.240;8.548;2023-09-19T05:59:37;100264.53;;;21.10
19568;BMP280;9930;49.240;8.548;2023-09-19T06:02:24;100269.69;;;21.11
19568;BMP280;9930;49.240;8.548;2023-09-19T06:23:23;100267.09;;;21.13
19568;BMP280;9930;49.240;8.548;2023-09-19T06:25:52;100288.63;;;21.25
19568;BMP280;9930;49.240;8.548;2023-09-19T06:28:19;100305.78;;;21.45
19568;BMP280;9930;49.240;8.548;2023-09-19T06:30:49;100312.63;;;21.53
19568;BMP280;9930;49.240;8.548;2023-09-19T06:33:15;100320.38;;;21.56
19568;BMP280;9930;49.240;8.548;2023-09-19T06:35:42;100309.19;;;21.50
19568;BMP280;9930;49.240;8.548;2023-09-19T06:38:10;100322.88;;;21.65
19568;BMP280;9930;49.240;8.548;2023-09-19T06:40:36;100358.16;;;21.88
19568;BMP280;9930;49.240;8.548;2023-09-19T06:43:04;100335.72;;;21.81
19568;BMP280;9930;49.240;8.548;2023-09-19T06:45:32;100308.16;;;21.67
19568;BMP280;9930;49.240;8.548;2023-09-19T06:48:05;100307.28;;;21.70
19568;BMP280;9930;49.240;8.548;2023-09-19T06:50:34;100340.88;;;21.87
19568;BMP280;9930;49.240;8.548;2023-09-19T06:53:06;100323.59;;;21.81
19568;BMP280;9930;49.240;8.548;2023-09-19T06:55:35;100351.16;;;21.96
19568;BMP280;9930;49.240;8.548;2023-09-19T07:17:33;100332.00;;;22.09
19568;BMP280;9930;49.240;8.548;2023-09-19T07:21:09;100336.31;;;22.12
19568;BMP280;9930;49.240;8.548;2023-09-19T07:23:51;100331.09;;;22.13
19568;BMP280;9930;49.240;8.548;2023-09-19T07:26:17;100370.63;;;22.41
19568;BMP280;9930;49.240;8.548;2023-09-19T07:28:43;100388.63;;;22.58
19568;BMP280;9930;49.240;8.548;2023-09-19T07:31:28;100368.78;;;22.51
19568;BMP280;9930;49.240;8.548;2023-09-19T07:34:27;100350.63;;;22.46
19568;BMP280;9930;49.240;8.548;2023-09-19T07:37:12;100357.50;;;22.52
19568;BMP280;9930;49.240;8.548;2023-09-19T07:39:42;100352.31;;;22.52
19568;BMP280;9930;49.240;8.548;2023-09-19T07:42:37;100392.75;;;22.76
19568;BMP280;9930;49.240;8.548;2023-09-19T07:45:06;100378.88;;;22.75
19568;BMP280;9930;49.240;8.548;2023-09-19T07:47:34;100378.00;;;22.79
19568;BMP280;9930;49.240;8.548;2023-09-19T07:50:03;100399.34;;;23.04
19568;BMP280;9930;49.240;8.548;2023-09-19T07:52:33;100397.53;;;23.09
19568;BMP280;9930;49.240;8.548;2023-09-19T07:54:59;100366.50;;;22.96
19568;BMP280;9930;49.240;8.548;2023-09-19T07:57:37;100383.63;;;23.12
19568;BMP280;9930;49.240;8.548;2023-09-19T08:00:04;100406.03;;;23.22
19568;BMP280;9930;49.240;8.548;2023-09-19T08:02:36;100411.06;;;23.33
19568;BMP280;9930;49.240;8.548;2023-09-19T08:05:04;100425.53;;;23.52
19568;BMP280;9930;49.240;8.548;2023-09-19T08:07:39;100375.50;;;23.33
19568;BMP280;9930;49.240;8.548;2023-09-19T08:10:06;100396.06;;;23.50
19568;BMP280;9930;49.240;8.548;2023-09-19T08:12:40;100399.47;;;23.53
19568;BMP280;9930;49.240;8.548;2023-09-19T08:15:20;100400.28;;;23.58
19568;BMP280;9930;49.240;8.548;2023-09-19T08:17:46;100384.75;;;23.51
19568;BMP280;9930;49.240;8.548;2023-09-19T08:20:13;100418.28;;;23.74
19568;BMP280;9930;49.240;8.548;2023-09-19T08:22:50;100414.84;;;23.72
19568;BMP280;9930;49.240;8.548;2023-09-19T08:25:23;100412.06;;;23.82
19568;BMP280;9930;49.240;8.548;2023-09-19T08:27:51;100417.16;;;23.88
19568;BMP280;9930;49.240;8.548;2023-09-19T08:30:20;100418.66;;;24.02
19568;BMP280;9930;49.240;8.548;2023-09-19T08:32:58;100421.16;;;24.09
19568;BMP280;9930;49.240;8.548;2023-09-19T08:35:42;100441.66;;;24.31
19568;BMP280;9930;49.240;8.548;2023-09-19T08:38:13;100396.75;;;24.13
19568;BMP280;9930;49.240;8.548;2023-09-19T08:40:41;100419.09;;;24.28
19568;BMP280;9930;49.240;8.548;2023-09-19T08:43:11;100443.97;;;24.46
19568;BMP280;9930;49.240;8.548;2023-09-19T08:45:42;100437.97;;;24.41
19568;BMP280;9930;49.240;8.548;2023-09-19T08:48:24;100455.97;;;24.54
19568;BMP280;9930;49.240;8.548;2023-09-19T08:51:27;100420.78;;;24.31
19568;BMP280;9930;49.240;8.548;2023-09-19T08:54:22;100443.91;;;24.49
19568;BMP280;9930;49.240;8.548;2023-09-19T08:56:54;100457.56;;;24.62
19568;BMP280;9930;49.240;8.548;2023-09-19T08:59:25;100453.28;;;24.59
19568;BMP280;9930;49.240;8.548;2023-09-19T09:02:16;100428.28;;;24.47
19568;BMP280;9930;49.240;8.548;2023-09-19T09:04:49;100409.41;;;24.35
19568;BMP280;9930;49.240;8.548;2023-09-19T09:07:18;100408.53;;;24.36
19568;BMP280;9930;49.240;8.548;2023-09-19T09:09:46;100418.00;;;24.40
19568;BMP280;9930;49.240;8.548;2023-09-19T09:12:14;100459.28;;;24.63
19568;BMP280;9930;49.240;8.548;2023-09-19T09:14:54;100459.31;;;24.61
19568;BMP280;9930;49.240;8.548;2023-09-19T09:17:26;100458.47;;;24.61
19568;BMP280;9930;49.240;8.548;2023-09-19T09:39:29;100434.78;;;24.71
19568;BMP280;9930;49.240;8.548;2023-09-19T09:45:26;100430.31;;;24.76
19568;BMP280;9930;49.240;8.548;2023-09-19T09:50:56;100432.09;;;24.74
19568;BMP280;9930;49.240;8.548;2023-09-19T09:53:47;100426.97;;;24.70
19568;BMP280;9930;49.240;8.548;2023-09-19T09:56:52;100419.34;;;24.61
19568;BMP280;9930;49.240;8.548;2023-09-19T10:03:46;100433.56;;;24.88
19568;BMP280;9930;49.240;8.548;2023-09-19T10:06:21;100401.53;;;24.81
19568;BMP280;9930;49.240;8.548;2023-09-19T10:14:47;100429.13;;;25.33
19568;BMP280;9930;49.240;8.548;2023-09-19T10:22:42;100392.03;;;25.56
19568;BMP280;9930;49.240;8.548;2023-09-19T10:25:19;100404.78;;;25.69
19568;BMP280;9930;49.240;8.548;2023-09-19T10:28:42;100402.78;;;25.80
19568;BMP280;9930;49.240;8.548;2023-09-19T10:31:24;100412.06;;;25.92
19568;BMP280;9930;49.240;8.548;2023-09-19T10:34:49;100423.03;;;26.05
19568;BMP280;9930;49.240;8.548;2023-09-19T14:05:23;100258.41;;;26.90
19568;BMP280;9930;49.240;8.548;2023-09-19T14:08:18;100256.50;;;26.95
19568;BMP280;9930;49.240;8.548;2023-09-19T14:13:19;100261.97;;;27.16
19568;BMP280;9930;49.240;8.548;2023-09-19T14:15:56;100258.16;;;27.26
19568;BMP280;9930;49.240;8.548;2023-09-19T14:18:49;100285.47;;;27.43
19568;BMP280;9930;49.240;8.548;2023-09-19T14:26:47;100280.25;;;27.43
19568;BMP280;9930;49.240;8.548;2023-09-19T14:29:15;100246.00;;;27.23
19568;BMP280;9930;49.240;8.548;2023-09-19T14:32:02;100258.00;;;27.30
19568;BMP280;9930;49.240;8.548;2023-09-19T14:34:52;100274.31;;;27.38
19568;BMP280;9930;49.240;8.548;2023-09-19T14:37:21;100235.63;;;27.20
19568;BMP280;9930;49.240;8.548;2023-09-19T14:43:16;100249.53;;;27.22
19568;BMP280;9930;49.240;8.548;2023-09-19T21:00:50;100304.69;;;22.48
19568;BMP280;9930;49.240;8.548;2023-09-19T21:03:16;100317.56;;;22.57
19568;BMP280;9930;49.240;8.548;2023-09-19T21:05:42;100308.97;;;22.54
19568;BMP280;9930;49.240;8.548;2023-09-19T21:08:29;100351.09;;;22.82
19568;BMP280;9930;49.240;8.548;2023-09-19T21:11:18;100350.19;;;22.84
19568;BMP280;9930;49.240;8.548;2023-09-19T21:14:07;100312.34;;;22.59
19568;BMP280;9930;49.240;8.548;2023-09-19T21:16:36;100310.56;;;22.62
19568;BMP280;9930;49.240;8.548;2023-09-19T21:19:04;100317.44;;;22.68
19568;BMP280;9930;49.240;8.548;2023-09-19T21:21:57;100325.97;;;22.79
19568;BMP280;9930;49.240;8.548;2023-09-19T21:24:36;100301.91;;;22.63
19568;BMP280;9930;49.240;8.548;2023-09-19T21:27:06;100329.41;;;22.81
19568;BMP280;9930;49.240;8.548;2023-09-19T21:29:36;100325.06;;;22.82
19568;BMP280;9930;49.240;8.548;2023-09-19T21:32:05;100305.28;;;22.70
19568;BMP280;9930;49.240;8.548;2023-09-19T21:34:42;100337.94;;;22.92
19568;BMP280;9930;49.240;8.548;2023-09-19T21:37:15;100304.34;;;22.74
19568;BMP280;9930;49.240;8.548;2023-09-19T21:39:41;100307.75;;;22.78
19568;BMP280;9930;49.240;8.548;2023-09-19T21:42:07;100334.47;;;22.92
19568;BMP280;9930;49.240;8.548;2023-09-19T21:44:44;100310.44;;;22.72
19568;BMP280;9930;49.240;8.548;2023-09-19T21:47:22;100298.38;;;22.68
19568;BMP280;9930;49.240;8.548;2023-09-19T21:49:52;100318.19;;;22.79
19568;BMP280;9930;49.240;8.548;2023-09-19T21:52:24;100319.94;;;22.74
19568;BMP280;9930;49.240;8.548;2023-09-19T21:55:12;100288.97;;;22.57
19568;BMP280;9930;49.240;8.548;2023-09-19T21:58:13;100301.84;;;22.67
19568;BMP280;9930;49.240;8.548;2023-09-19T22:04:27;100293.47;;;22.46
19568;BMP280;9930;49.240;8.548;2023-09-19T22:07:26;100330.47;;;22.65
19568;BMP280;9930;49.240;8.548;2023-09-19T22:10:10;100309.88;;;22.50
19568;BMP280;9930;49.240;8.548;2023-09-19T22:13:14;100298.00;;;22.30
19568;BMP280;9930;49.240;8.548;2023-09-19T22:16:57;100296.28;;;22.28
19568;BMP280;9930;49.240;8.548;2023-09-19T22:22:29;100335.94;;;22.44
19568;BMP280;9930;49.240;8.548;2023-09-19T22:25:49;100286.97;;;22.12
19568;BMP280;9930;49.240;8.548;2023-09-19T22:28:40;100293.88;;;22.11
19568;BMP280;9930;49.240;8.548;2023-09-19T22:31:36;100300.81;;;22.12
19568;BMP280;9930;49.240;8.548;2023-09-19T22:39:55;100318.81;;;22.27
19568;BMP280;9930;49.240;8.548;2023-09-19T22:42:52;100311.94;;;22.23
19568;BMP280;9930;49.240;8.548;2023-09-19T22:45:48;100311.13;;;22.18
19568;BMP280;9930;49.240;8.548;2023-09-19T22:48:22;100293.91;;;22.10
19568;BMP280;9930;49.240;8.548;2023-09-19T22:54:40;100291.34;;;22.05
19568;BMP280;9930;49.240;8.548;2023-09-19T22:57:37;100330.03;;;22.29
19568;BMP280;9930;49.240;8.548;2023-09-19T23:00:45;100318.06;;;22.16
19568;BMP280;9930;49.240;8.548;2023-09-19T23:03:54;100325.84;;;22.19
19568;BMP280;9930;49.240;8.548;2023-09-19T23:07:14;100294.84;;;22.01
19568;BMP280;9930;49.240;8.548;2023-09-19T23:10:06;100339.66;;;22.23
19568;BMP280;9930;49.240;8.548;2023-09-19T23:14:09;100313.09;;;21.95
19568;BMP280;9930;49.240;8.548;2023-09-19T23:17:15;100336.31;;;22.10
19568;BMP280;9930;49.240;8.548;2023-09-19T23:34:53;100323.72;;;21.71
19568;BMP280;9930;49.240;8.548;2023-09-19T23:38:35;100311.66;;;21.63
19568;BMP280;9930;49.240;8.548;2023-09-19T23:52:49;100285.06;;;21.40
